createdAt,value
2022-09-13T00:00:51.246Z,5.00
2022-09-13T00:03:19.809Z,5.10
2022-09-13T00:05:47.741Z,4.60
2022-09-13T00:08:16.278Z,4.28
2022-09-13T00:10:47.358Z,4.82
2022-09-13T00:13:21.019Z,4.88
2022-09-13T00:15:52.132Z,5.28
2022-09-13T00:18:19.959Z,4.97
2022-09-13T00:20:47.783Z,4.82
2022-09-13T00:23:15.639Z,4.38
2022-09-13T00:25:43.321Z,4.53
2022-09-13T00:28:11.083Z,4.80
2022-09-13T00:30:40.137Z,4.65
2022-09-13T00:33:07.848Z,4.32
2022-09-13T00:35:37.966Z,4.65
2022-09-13T00:38:06.553Z,4.70
2022-09-13T00:40:38.532Z,4.30
2022-09-13T00:43:13.043Z,4.43
2022-09-13T00:45:42.144Z,4.70
2022-09-13T00:48:17.767Z,4.55
2022-09-13T00:53:18.994Z,4.93
2022-09-13T00:55:53.640Z,4.07
2022-09-13T00:58:24.916Z,4.93
2022-09-13T01:00:54.890Z,4.57
2022-09-13T01:03:28.543Z,4.53
2022-09-13T01:05:59.860Z,4.60
2022-09-13T01:08:29.341Z,4.63
2022-09-13T01:10:59.962Z,4.40
2022-09-13T01:13:35.240Z,5.28
2022-09-13T01:16:04.483Z,5.15
2022-09-13T01:18:32.462Z,4.78
2022-09-13T01:21:29.198Z,4.75
2022-09-13T01:24:22.921Z,4.13
2022-09-13T01:27:13.776Z,4.30
2022-09-13T01:30:15.902Z,4.50
2022-09-13T01:33:01.727Z,4.25
2022-09-13T01:35:43.461Z,4.13
2022-09-13T01:38:23.330Z,4.32
2022-09-13T01:41:04.841Z,4.32
2022-09-13T01:43:43.164Z,4.43
2022-09-13T01:46:19.891Z,4.80
2022-09-13T01:48:56.225Z,4.57
2022-09-13T01:51:29.740Z,4.32
2022-09-13T01:54:14.401Z,4.20
2022-09-13T01:56:54.415Z,4.68
2022-09-13T01:59:30.122Z,4.53
2022-09-13T02:02:05.135Z,4.47
2022-09-13T02:04:39.054Z,3.83
2022-09-13T02:07:14.506Z,4.07
2022-09-13T02:09:46.377Z,4.97
2022-09-13T02:12:20.279Z,4.95
2022-09-13T02:14:54.374Z,4.45
2022-09-13T02:17:26.288Z,4.25
2022-09-13T02:19:58.352Z,4.72
2022-09-13T02:22:31.949Z,4.80
2022-09-13T02:25:04.071Z,4.20
2022-09-13T02:27:35.266Z,4.28
2022-09-13T02:30:07.531Z,4.30
2022-09-13T02:32:40.597Z,4.10
2022-09-13T02:35:13.475Z,4.00
2022-09-13T02:37:47.498Z,4.50
2022-09-13T02:40:23.443Z,4.53
2022-09-13T02:42:57.659Z,4.13
2022-09-13T02:45:34.182Z,3.88
2022-09-13T02:48:10.679Z,4.20
2022-09-13T02:50:56.754Z,3.83
2022-09-13T02:53:30.865Z,3.75
2022-09-13T02:56:05.687Z,4.05
2022-09-13T02:58:39.356Z,4.28
2022-09-13T03:01:07.140Z,3.58
2022-09-13T03:03:36.508Z,3.53
2022-09-13T03:06:04.336Z,4.00
2022-09-13T03:08:32.461Z,3.60
2022-09-13T03:11:12.232Z,3.58
2022-09-13T03:14:04.981Z,3.92
2022-09-13T03:16:45.515Z,3.70
2022-09-13T03:19:29.462Z,3.72
2022-09-13T03:22:13.354Z,3.92
2022-09-13T03:24:51.290Z,3.63
2022-09-13T03:27:29.008Z,4.10
2022-09-13T03:30:03.028Z,3.67
2022-09-13T03:32:38.068Z,3.65
2022-09-13T03:35:16.156Z,4.13
2022-09-13T03:37:54.850Z,3.60
2022-09-13T03:40:27.687Z,3.80
2022-09-13T03:43:01.247Z,3.50
2022-09-13T03:45:33.935Z,3.33
2022-09-13T03:48:05.122Z,3.22
2022-09-13T03:50:35.439Z,3.28
2022-09-13T03:53:08.717Z,3.42
2022-09-13T03:55:41.413Z,3.47
2022-09-13T03:58:12.584Z,4.03
2022-09-13T04:00:45.089Z,3.65
2022-09-13T04:03:16.740Z,3.47
2022-09-13T04:05:46.569Z,3.72
2022-09-13T04:08:14.253Z,3.38
2022-09-13T04:10:41.912Z,3.55
2022-09-13T04:13:09.583Z,3.35
2022-09-13T04:15:37.241Z,3.10
2022-09-13T04:18:05.619Z,3.55
2022-09-13T04:20:33.268Z,3.75
2022-09-13T04:23:02.368Z,4.00
2022-09-13T04:25:30.128Z,4.03
2022-09-13T04:27:59.881Z,3.72
2022-09-13T04:30:28.203Z,4.10
2022-09-13T04:32:59.657Z,3.58
2022-09-13T04:35:27.505Z,3.83
2022-09-13T04:37:57.036Z,3.58
2022-09-13T04:40:26.439Z,3.10
2022-09-13T04:42:54.120Z,3.50
2022-09-13T04:45:22.173Z,3.40
2022-09-13T04:47:52.682Z,3.47
2022-09-13T04:50:20.678Z,4.00
2022-09-13T04:52:51.135Z,3.83
2022-09-13T04:55:21.380Z,3.45
2022-09-13T04:57:55.544Z,3.63
2022-09-13T05:00:23.332Z,3.13
2022-09-13T05:02:55.333Z,2.67
2022-09-13T05:05:23.425Z,2.95
2022-09-13T05:07:51.617Z,3.53
2022-09-13T05:10:19.898Z,3.10
2022-09-13T05:12:49.494Z,2.53
2022-09-13T05:15:18.646Z,2.67
2022-09-13T05:17:46.334Z,2.75
2022-09-13T05:20:14.041Z,2.40
2022-09-13T05:22:41.708Z,2.58
2022-09-13T05:25:09.936Z,2.45
2022-09-13T05:27:39.403Z,2.58
2022-09-13T05:30:08.214Z,2.17
2022-09-13T05:32:37.283Z,2.38
2022-09-13T05:35:08.436Z,2.50
2022-09-13T05:37:36.178Z,2.53
2022-09-13T05:40:12.541Z,2.30
2022-09-13T05:42:40.657Z,2.50
2022-09-13T05:45:10.395Z,2.35
2022-09-13T05:47:39.457Z,2.50
2022-09-13T05:50:10.728Z,2.20
2022-09-13T05:52:39.786Z,2.17
2022-09-13T05:55:07.984Z,2.00
2022-09-13T05:57:35.843Z,2.28
2022-09-13T06:00:04.913Z,2.13
2022-09-13T06:02:33.072Z,2.38
2022-09-13T06:05:02.177Z,1.88
2022-09-13T06:07:29.920Z,1.77
2022-09-13T06:09:58.459Z,2.00
2022-09-13T06:12:26.171Z,1.75
2022-09-13T06:14:56.154Z,2.10
2022-09-13T06:17:23.847Z,1.85
2022-09-13T06:19:51.585Z,2.00
2022-09-13T06:22:20.643Z,1.73
2022-09-13T06:24:48.321Z,1.98
2022-09-13T06:27:16.139Z,2.13
2022-09-13T06:29:43.873Z,1.90
2022-09-13T06:32:11.598Z,2.03
2022-09-13T06:34:39.300Z,1.60
2022-09-13T06:37:06.973Z,1.92
2022-09-13T06:39:36.559Z,2.00
2022-09-13T06:42:04.432Z,1.73
2022-09-13T06:44:32.145Z,1.77
2022-09-13T06:46:59.904Z,2.03
2022-09-13T06:49:29.234Z,1.70
2022-09-13T06:51:56.891Z,1.50
2022-09-13T06:54:24.653Z,2.20
2022-09-13T06:56:53.677Z,1.77
2022-09-13T06:59:21.508Z,1.67
2022-09-13T07:01:49.366Z,1.50
2022-09-13T07:04:19.313Z,1.80
2022-09-13T07:06:48.856Z,1.80
2022-09-13T07:09:19.136Z,1.45
2022-09-13T07:11:48.137Z,1.70
2022-09-13T07:14:19.150Z,1.70
2022-09-13T07:16:50.245Z,1.70
2022-09-13T07:19:20.094Z,1.58
2022-09-13T07:21:49.759Z,1.40
2022-09-13T07:24:17.818Z,1.60
2022-09-13T07:26:48.104Z,1.50
2022-09-13T07:29:20.454Z,1.98
2022-09-13T07:31:49.800Z,1.40
2022-09-13T07:34:19.504Z,1.50
2022-09-13T07:36:48.195Z,1.20
2022-09-13T07:39:22.359Z,1.17
2022-09-13T07:41:54.605Z,1.38
2022-09-13T07:44:23.804Z,1.45
2022-09-13T07:46:51.688Z,1.38
2022-09-13T07:49:22.861Z,1.17
2022-09-13T07:51:53.001Z,1.38
2022-09-13T07:54:21.512Z,1.35
2022-09-13T07:56:51.661Z,1.25
2022-09-13T07:59:19.956Z,1.50
2022-09-13T08:01:50.997Z,1.27
2022-09-13T08:04:21.373Z,1.20
2022-09-13T08:06:49.912Z,1.13
2022-09-13T08:09:18.644Z,1.30
2022-09-13T08:11:48.392Z,1.10
2022-09-13T08:14:18.272Z,1.13
2022-09-13T08:16:46.494Z,1.20
2022-09-13T08:19:18.030Z,1.20
2022-09-13T08:21:46.879Z,1.10
2022-09-13T08:24:18.879Z,1.10
2022-09-13T08:26:47.696Z,1.08
2022-09-13T08:29:18.977Z,1.00
2022-09-13T08:31:47.131Z,1.35
2022-09-13T08:34:16.987Z,1.05
2022-09-13T08:36:45.296Z,1.15
2022-09-13T08:39:14.194Z,1.00
2022-09-13T08:42:05.034Z,0.98
2022-09-13T08:44:35.925Z,1.20
2022-09-13T08:47:32.134Z,1.35
2022-09-13T08:50:11.800Z,1.15
2022-09-13T08:52:50.037Z,1.20
2022-09-13T08:55:26.280Z,1.25
2022-09-13T08:58:03.402Z,1.00
2022-09-13T09:00:36.162Z,1.13
2022-09-13T09:03:13.004Z,1.20
2022-09-13T09:05:47.772Z,1.00
2022-09-13T09:08:27.221Z,1.00
2022-09-13T09:10:58.190Z,1.60
2022-09-13T09:13:30.798Z,1.20
2022-09-13T09:16:02.535Z,1.20
2022-09-13T09:18:33.693Z,1.20
2022-09-13T09:21:04.523Z,1.40
2022-09-13T09:23:39.050Z,1.15
2022-09-13T09:26:18.295Z,1.45
2022-09-13T09:28:48.998Z,0.90
2022-09-13T09:31:27.001Z,1.40
2022-09-13T09:34:04.790Z,0.90
2022-09-13T09:36:40.614Z,1.23
2022-09-13T09:39:12.902Z,1.13
2022-09-13T09:41:40.958Z,1.13
2022-09-13T09:44:18.744Z,1.10
2022-09-13T09:46:50.101Z,1.23
2022-09-13T09:49:40.177Z,0.90
2022-09-13T09:52:14.640Z,1.00
2022-09-13T09:54:42.524Z,1.20
2022-09-13T09:57:10.581Z,1.20
2022-09-13T09:59:38.357Z,1.30
2022-09-13T10:02:19.018Z,1.00
2022-09-13T10:04:57.468Z,1.40
2022-09-13T10:07:32.353Z,1.17
2022-09-13T10:10:03.978Z,1.40
2022-09-13T10:12:35.715Z,1.10
2022-09-13T10:15:16.541Z,1.10
2022-09-13T10:17:45.552Z,1.17
2022-09-13T10:20:26.669Z,1.17
2022-09-13T10:23:21.465Z,0.95
2022-09-13T10:26:11.213Z,1.42
2022-09-13T10:28:47.120Z,1.25
2022-09-13T10:31:17.598Z,1.33
2022-09-13T10:33:57.325Z,1.30
2022-09-13T10:36:51.280Z,1.20
2022-09-13T10:39:21.643Z,1.30
2022-09-13T10:41:53.446Z,1.13
2022-09-13T10:44:29.817Z,0.90
2022-09-13T10:46:59.173Z,1.10
2022-09-13T10:49:37.262Z,1.20
2022-09-13T10:52:25.578Z,0.80
2022-09-13T10:54:55.122Z,1.20
2022-09-13T10:57:36.715Z,1.00
2022-09-13T11:00:09.123Z,0.90
2022-09-13T11:02:51.625Z,0.80
2022-09-13T11:05:27.150Z,1.10
2022-09-13T11:08:26.753Z,1.25
2022-09-13T11:11:07.344Z,0.90
2022-09-13T11:13:45.081Z,0.80
2022-09-13T11:16:30.515Z,0.95
2022-09-13T11:19:42.848Z,1.00
2022-09-13T11:22:45.693Z,0.80
2022-09-13T11:25:29.088Z,0.82
2022-09-13T11:28:04.978Z,0.80
2022-09-13T11:30:37.771Z,1.00
2022-09-13T11:33:23.610Z,0.70
2022-09-13T11:36:04.611Z,0.77
2022-09-13T11:38:47.843Z,0.93
2022-09-13T11:41:28.326Z,0.90
2022-09-13T11:44:32.137Z,1.00
2022-09-13T11:47:09.364Z,0.80
2022-09-13T11:50:04.680Z,0.90
2022-09-13T11:52:43.331Z,0.83
2022-09-13T11:55:18.189Z,0.90
2022-09-13T11:57:55.334Z,0.95
2022-09-13T12:00:25.925Z,0.88
2022-09-13T12:03:07.881Z,1.30
2022-09-13T12:05:41.660Z,1.65
2022-09-13T12:08:17.647Z,1.02
2022-09-13T12:10:51.586Z,1.00
2022-09-13T12:13:22.878Z,0.70
2022-09-13T12:15:55.005Z,1.10
2022-09-13T12:18:27.494Z,0.80
2022-09-13T12:21:00.214Z,0.77
2022-09-13T12:23:33.157Z,0.80
2022-09-13T12:26:04.788Z,1.00
2022-09-13T12:28:41.602Z,0.70
2022-09-13T12:31:16.034Z,0.90
2022-09-13T12:33:44.497Z,1.02
2022-09-13T12:36:40.390Z,1.02
2022-09-13T12:39:26.674Z,0.80
2022-09-13T12:42:11.481Z,1.27
2022-09-13T12:44:54.065Z,1.13
2022-09-13T12:47:38.561Z,0.90
2022-09-13T12:50:48.402Z,1.30
2022-09-13T12:53:42.440Z,1.10
2022-09-13T12:56:31.062Z,0.95
2022-09-13T12:59:18.419Z,0.85
2022-09-13T13:01:48.019Z,1.10
2022-09-13T13:04:19.722Z,1.30
2022-09-13T13:06:52.517Z,0.82
2022-09-13T13:09:30.154Z,0.80
2022-09-13T13:11:59.684Z,0.65
2022-09-13T13:14:31.884Z,1.10
2022-09-13T13:17:36.970Z,0.77
2022-09-13T13:20:37.830Z,1.00
2022-09-13T13:23:24.482Z,0.80
2022-09-13T13:26:01.393Z,0.75
2022-09-13T13:29:05.828Z,0.82
2022-09-13T13:31:41.652Z,1.00
2022-09-13T13:34:32.381Z,2.20
2022-09-13T13:37:04.177Z,1.77
2022-09-13T13:40:11.014Z,0.80
2022-09-13T13:42:39.658Z,1.05
2022-09-13T13:45:24.072Z,0.60
2022-09-13T13:48:08.313Z,0.73
2022-09-13T13:50:39.248Z,1.00
2022-09-13T13:53:23.940Z,0.80
2022-09-13T13:56:10.121Z,1.15
2022-09-13T13:58:49.873Z,0.80
2022-09-13T14:01:23.560Z,0.80
2022-09-13T14:04:09.266Z,0.60
2022-09-13T14:06:49.274Z,0.88
2022-09-13T14:09:33.473Z,0.80
2022-09-13T14:12:17.563Z,1.20
2022-09-13T14:15:01.942Z,0.90
2022-09-13T14:17:53.691Z,0.80
2022-09-13T14:20:23.001Z,0.80
2022-09-13T14:22:50.669Z,0.90
2022-09-13T14:25:25.361Z,0.80
2022-09-13T14:28:01.901Z,0.90
2022-09-13T14:30:35.280Z,0.77
2022-09-13T14:33:05.279Z,1.05
2022-09-13T14:35:35.978Z,1.17
2022-09-13T14:38:19.412Z,0.70
2022-09-13T14:40:49.907Z,1.00
2022-09-13T14:43:23.970Z,0.80
2022-09-13T14:46:01.050Z,0.60
2022-09-13T14:48:33.670Z,0.68
2022-09-13T14:51:05.798Z,0.90
2022-09-13T14:53:36.096Z,0.85
2022-09-13T14:56:06.646Z,0.70
2022-09-13T14:58:45.248Z,0.77
2022-09-13T15:01:15.872Z,1.13
2022-09-13T15:03:44.467Z,0.90
2022-09-13T15:06:24.461Z,0.80
2022-09-13T15:08:53.629Z,0.75
2022-09-13T15:11:36.704Z,0.80
2022-09-13T15:14:32.208Z,1.00
2022-09-13T15:17:07.266Z,1.10
2022-09-13T15:19:40.849Z,1.23
2022-09-13T15:22:18.917Z,0.95
2022-09-13T15:24:52.420Z,1.20
2022-09-13T15:27:27.708Z,1.00
2022-09-13T15:30:01.259Z,0.93
2022-09-13T15:32:35.806Z,1.20
2022-09-13T15:35:03.608Z,1.10
2022-09-13T15:37:37.700Z,1.25
2022-09-13T15:40:30.689Z,1.30
2022-09-13T15:42:59.893Z,1.20
2022-09-13T15:45:28.930Z,1.00
2022-09-13T15:47:56.602Z,0.98
2022-09-13T15:50:28.954Z,0.90
2022-09-13T15:52:56.736Z,1.10
2022-09-13T15:55:25.224Z,1.00
2022-09-13T15:57:52.937Z,0.93
2022-09-13T16:00:23.162Z,0.93
2022-09-13T16:02:52.922Z,0.90
2022-09-13T16:05:21.323Z,1.20
2022-09-13T16:07:49.088Z,1.10
2022-09-13T16:10:20.001Z,1.15
2022-09-13T16:12:47.849Z,1.70
2022-09-13T16:15:16.902Z,1.20
2022-09-13T16:17:49.214Z,1.52
2022-09-13T16:20:18.294Z,1.20
2022-09-13T16:22:45.968Z,1.10
2022-09-13T16:25:14.964Z,1.17
2022-09-13T16:27:44.735Z,1.20
2022-09-13T16:30:14.607Z,1.17
2022-09-13T16:32:42.673Z,1.60
2022-09-13T16:35:11.815Z,1.50
2022-09-13T16:37:41.795Z,1.55
2022-09-13T16:40:11.035Z,1.25
2022-09-13T16:42:39.168Z,1.20
2022-09-13T16:45:07.823Z,1.27
2022-09-13T16:47:35.510Z,1.42
2022-09-13T16:50:03.501Z,1.52
2022-09-13T16:52:31.182Z,1.50
2022-09-13T16:55:00.282Z,1.70
2022-09-13T16:57:27.982Z,1.40
2022-09-13T16:59:58.397Z,1.17
2022-09-13T17:02:26.544Z,1.40
2022-09-13T17:04:54.436Z,1.48
2022-09-13T17:07:22.245Z,1.58
2022-09-13T17:09:49.968Z,1.55
2022-09-13T17:12:19.445Z,1.73
2022-09-13T17:14:47.558Z,1.30
2022-09-13T17:17:15.882Z,1.35
2022-09-13T17:19:44.636Z,1.50
2022-09-13T17:22:12.682Z,1.73
2022-09-13T17:24:40.958Z,1.85
2022-09-13T17:27:08.776Z,1.67
2022-09-13T17:29:38.063Z,1.27
2022-09-13T17:32:06.784Z,1.65
2022-09-13T17:34:34.971Z,1.63
2022-09-13T17:37:03.813Z,1.80
2022-09-13T17:39:32.059Z,1.60
2022-09-13T17:41:59.750Z,1.50
2022-09-13T17:44:27.608Z,1.83
2022-09-13T17:46:56.697Z,1.42
2022-09-13T17:49:24.449Z,2.08
2022-09-13T17:51:52.218Z,1.90
2022-09-13T17:54:22.937Z,1.98
2022-09-13T17:56:51.773Z,1.90
2022-09-13T17:59:21.391Z,1.65
2022-09-13T18:01:51.001Z,1.80
2022-09-13T18:04:22.027Z,1.80
2022-09-13T18:06:51.433Z,1.90
2022-09-13T18:09:19.467Z,1.90
2022-09-13T18:11:47.354Z,1.58
2022-09-13T18:14:16.707Z,1.80
2022-09-13T18:16:45.299Z,2.13
2022-09-13T18:19:13.623Z,2.30
2022-09-13T18:21:42.708Z,2.00
2022-09-13T18:24:10.548Z,1.80
2022-09-13T18:26:38.468Z,2.10
2022-09-13T18:29:07.869Z,2.40
2022-09-13T18:31:37.074Z,2.13
2022-09-13T18:34:07.013Z,2.60
2022-09-13T18:36:36.328Z,2.25
2022-09-13T18:39:06.441Z,2.15
2022-09-13T18:41:36.117Z,2.15
2022-09-13T18:44:05.877Z,2.30
2022-09-13T18:46:35.803Z,1.90
2022-09-13T18:49:04.205Z,2.00
2022-09-13T18:51:34.597Z,1.88
2022-09-13T18:54:03.497Z,1.88
2022-09-13T18:56:33.757Z,2.20
2022-09-13T18:59:02.843Z,2.10
2022-09-13T19:01:32.658Z,2.40
2022-09-13T19:04:02.536Z,2.20
2022-09-13T19:06:31.954Z,2.28
2022-09-13T19:09:01.038Z,2.20
2022-09-13T19:11:46.358Z,2.17
2022-09-13T19:17:24.065Z,2.45
2022-09-13T19:19:51.741Z,2.38
2022-09-13T19:22:19.423Z,2.58
2022-09-13T19:24:48.312Z,2.25
2022-09-13T19:27:16.243Z,2.20
2022-09-13T19:29:43.925Z,2.47
2022-09-13T19:32:13.127Z,2.15
2022-09-13T19:34:40.783Z,2.70
2022-09-13T19:37:08.483Z,2.53
2022-09-13T19:39:36.154Z,2.90
2022-09-13T19:42:03.922Z,3.15
2022-09-13T19:44:33.376Z,2.70
2022-09-13T19:47:45.011Z,2.83
2022-09-13T19:49:50.584Z,3.17
2022-09-13T19:52:18.283Z,2.42
2022-09-13T19:54:46.033Z,2.83
2022-09-13T19:57:13.715Z,2.50
2022-09-13T19:59:44.590Z,2.80
2022-09-13T20:02:12.263Z,2.78
2022-09-13T20:04:40.047Z,3.10
2022-09-13T20:07:12.136Z,2.70
2022-09-13T20:09:41.768Z,2.83
2022-09-13T20:12:11.359Z,3.30
2022-09-13T20:14:39.141Z,2.75
2022-09-13T20:17:07.160Z,3.22
2022-09-13T20:19:42.828Z,3.00
2022-09-13T20:22:14.328Z,3.05
2022-09-13T20:24:42.034Z,3.15
2022-09-13T20:27:10.058Z,2.85
2022-09-13T20:29:37.884Z,3.22
2022-09-13T20:32:05.640Z,2.90
2022-09-13T20:34:35.093Z,3.05
2022-09-13T20:37:02.782Z,3.63
2022-09-13T20:39:31.913Z,3.30
2022-09-13T20:41:59.596Z,3.28
2022-09-13T20:44:27.500Z,3.53
2022-09-13T20:46:55.163Z,3.40
2022-09-13T20:49:22.904Z,3.55
2022-09-13T20:51:50.945Z,2.90
2022-09-13T20:54:18.941Z,3.10
2022-09-13T20:56:48.018Z,3.55
2022-09-13T20:59:15.839Z,3.25
2022-09-13T21:01:44.082Z,3.50
2022-09-13T21:04:11.963Z,3.17
2022-09-13T21:07:02.547Z,4.03
2022-09-13T21:09:29.888Z,3.67
2022-09-13T21:11:58.924Z,3.60
2022-09-13T21:14:26.666Z,3.67
2022-09-13T21:16:55.113Z,3.10
2022-09-13T21:19:23.046Z,3.33
2022-09-13T21:21:51.006Z,3.55
2022-09-13T21:24:18.720Z,3.92
2022-09-13T21:26:46.410Z,3.10
2022-09-13T21:29:15.502Z,3.00
2022-09-13T21:31:43.278Z,3.13
2022-09-13T21:34:15.138Z,3.78
2022-09-13T21:36:43.207Z,3.08
2022-09-13T21:39:10.936Z,3.65
2022-09-13T21:41:38.641Z,3.88
2022-09-13T21:44:06.741Z,4.00
2022-09-13T21:46:37.141Z,3.08
2022-09-13T21:49:07.469Z,3.08
2022-09-13T21:51:36.900Z,3.50
2022-09-13T21:54:07.072Z,3.83
2022-09-13T21:56:37.587Z,3.60
2022-09-13T21:59:09.514Z,3.38
2022-09-13T22:01:41.613Z,3.83
2022-09-13T22:04:11.068Z,3.08
2022-09-13T22:06:39.269Z,3.40
2022-09-13T22:09:12.258Z,3.50
2022-09-13T22:11:46.282Z,3.50
2022-09-13T22:14:17.203Z,3.78
2022-09-13T22:16:48.550Z,3.10
2022-09-13T22:19:18.213Z,3.55
2022-09-13T22:21:48.780Z,3.80
2022-09-13T22:24:19.231Z,3.55
2022-09-13T22:26:48.458Z,3.50
2022-09-13T22:29:18.136Z,3.60
2022-09-13T22:31:49.843Z,3.40
2022-09-13T22:34:19.596Z,3.15
2022-09-13T22:36:48.228Z,3.47
2022-09-13T22:39:17.649Z,3.15
2022-09-13T22:41:45.644Z,3.33
2022-09-13T22:44:13.967Z,2.90
2022-09-13T22:46:43.708Z,3.42
2022-09-13T22:49:15.217Z,3.40
2022-09-13T22:51:44.929Z,3.17
2022-09-13T22:54:13.151Z,3.30
2022-09-13T22:56:40.845Z,3.70
2022-09-13T22:59:12.392Z,3.30
2022-09-13T23:08:36.066Z,3.45
2022-09-13T23:11:12.343Z,3.10
2022-09-13T23:13:42.758Z,3.30
2022-09-13T23:16:16.208Z,3.47
2022-09-13T23:18:44.782Z,3.58
2022-09-13T23:21:14.064Z,3.70
2022-09-13T23:23:41.768Z,3.30
2022-09-13T23:26:14.274Z,3.83
2022-09-13T23:28:42.166Z,3.20
2022-09-13T23:31:12.342Z,3.20
2022-09-13T23:33:40.872Z,3.35
2022-09-13T23:36:09.045Z,3.30
2022-09-13T23:38:38.142Z,3.35
2022-09-13T23:41:06.999Z,4.03
2022-09-13T23:43:35.254Z,3.60
2022-09-13T23:46:03.090Z,3.72
2022-09-13T23:48:31.810Z,3.60
2022-09-13T23:51:01.450Z,3.60
2022-09-13T23:53:29.587Z,3.50
2022-09-13T23:55:58.898Z,3.70
2022-09-13T23:58:27.177Z,3.85
